createdAt,value
2024-05-09T00:02:16.170Z,1.00
2024-05-09T00:04:47.956Z,1.00
2024-05-09T00:07:19.225Z,1.00
2024-05-09T00:09:52.311Z,1.00
2024-05-09T00:12:20.172Z,1.00
2024-05-09T00:14:53.193Z,1.00
2024-05-09T00:17:25.286Z,1.00
2024-05-09T00:19:53.133Z,1.00
2024-05-09T00:22:23.588Z,1.00
2024-05-09T00:24:52.442Z,1.00
2024-05-09T00:27:21.121Z,99.90
2024-05-09T00:29:48.412Z,1.00
2024-05-09T00:32:18.933Z,1.00
2024-05-09T00:34:46.861Z,1.00
2024-05-09T00:37:14.258Z,1.00
2024-05-09T00:39:44.692Z,1.00
2024-05-09T00:42:12.326Z,3.30
2024-05-09T00:44:39.899Z,1.00
2024-05-09T00:47:15.105Z,1.00
2024-05-09T00:49:45.399Z,1.00
2024-05-09T00:52:13.493Z,1.00
2024-05-09T00:54:41.204Z,99.90
2024-05-09T00:57:12.722Z,99.90
2024-05-09T00:59:43.868Z,1.00
2024-05-09T01:02:16.526Z,1.00
2024-05-09T01:04:49.723Z,1.00
2024-05-09T01:07:22.533Z,1.00
2024-05-09T01:09:53.653Z,1.00
2024-05-09T01:12:21.310Z,1.00
2024-05-09T01:14:52.611Z,1.00
2024-05-09T01:17:26.789Z,1.00
2024-05-09T01:19:57.803Z,6.60
2024-05-09T01:22:32.495Z,1.00
2024-05-09T01:24:59.997Z,1.00
2024-05-09T01:27:27.655Z,1.00
2024-05-09T01:29:55.014Z,99.90
2024-05-09T01:32:23.606Z,99.90
2024-05-09T01:34:56.641Z,1.00
2024-05-09T01:37:26.433Z,1.00
2024-05-09T01:39:59.264Z,1.00
2024-05-09T01:42:35.610Z,1.00
2024-05-09T01:45:03.345Z,1.00
2024-05-09T01:47:33.802Z,1.00
2024-05-09T01:50:09.201Z,1.00
2024-05-09T01:53:04.897Z,1.00
2024-05-09T01:55:34.977Z,1.00
2024-05-09T01:58:02.829Z,99.90
2024-05-09T02:00:38.784Z,99.90
2024-05-09T02:03:16.623Z,99.90
2024-05-09T02:05:54.170Z,99.90
2024-05-09T02:08:25.507Z,99.90
2024-05-09T02:10:53.126Z,1.00
2024-05-09T02:13:23.798Z,1.00
2024-05-09T02:15:54.761Z,1.00
2024-05-09T02:18:25.441Z,1.00
2024-05-09T02:20:53.090Z,1.00
2024-05-09T02:23:23.680Z,1.00
2024-05-09T02:26:00.311Z,1.00
2024-05-09T02:28:28.732Z,1.00
2024-05-09T02:31:02.082Z,1.00
2024-05-09T02:33:33.973Z,1.00
2024-05-09T02:36:03.130Z,1.00
2024-05-09T02:38:33.287Z,99.90
2024-05-09T02:41:06.818Z,99.90
2024-05-09T02:43:34.420Z,99.90
2024-05-09T02:46:12.630Z,99.90
2024-05-09T02:48:41.115Z,99.90
2024-05-09T02:51:09.691Z,99.90
2024-05-09T02:53:41.700Z,99.90
2024-05-09T02:56:09.934Z,99.90
2024-05-09T02:58:43.568Z,99.90
2024-05-09T03:01:11.164Z,32.80
2024-05-09T03:03:38.736Z,50.80
2024-05-09T03:06:06.454Z,1.00
2024-05-09T03:08:34.282Z,1.00
2024-05-09T03:11:01.910Z,1.00
2024-05-09T03:13:32.976Z,1.00
2024-05-09T03:16:03.601Z,99.90
2024-05-09T03:18:32.311Z,99.90
2024-05-09T03:21:07.511Z,99.90
2024-05-09T03:23:45.733Z,99.90
2024-05-09T03:26:15.424Z,99.90
2024-05-09T03:28:49.018Z,99.90
2024-05-09T03:31:18.903Z,99.90
2024-05-09T03:33:46.470Z,99.90
2024-05-09T03:36:15.394Z,1.00
2024-05-09T03:38:47.413Z,99.90
2024-05-09T03:41:14.977Z,1.00
2024-05-09T03:43:46.784Z,99.90
2024-05-09T03:46:14.132Z,99.90
2024-05-09T03:48:44.409Z,1.00
2024-05-09T03:51:12.085Z,1.00
2024-05-09T03:53:39.714Z,52.90
2024-05-09T03:56:17.773Z,14.50
2024-05-09T03:58:55.733Z,99.90
2024-05-09T04:01:37.310Z,1.00
2024-05-09T04:04:11.105Z,1.00
2024-05-09T04:06:38.840Z,1.00
2024-05-09T04:09:09.915Z,1.00
2024-05-09T04:11:43.427Z,1.00
2024-05-09T04:14:41.257Z,1.00
2024-05-09T04:17:14.871Z,99.90
2024-05-09T04:19:43.062Z,1.00
2024-05-09T04:22:13.804Z,1.00
2024-05-09T04:24:41.661Z,1.00
2024-05-09T04:27:09.628Z,1.00
2024-05-09T04:29:38.473Z,1.00
2024-05-09T04:32:11.144Z,1.00
2024-05-09T04:34:41.419Z,1.00
2024-05-09T04:37:11.838Z,1.00
2024-05-09T04:39:40.747Z,99.90
2024-05-09T04:42:17.178Z,99.90
2024-05-09T04:44:46.268Z,1.00
2024-05-09T04:47:14.899Z,1.00
2024-05-09T04:49:56.496Z,1.00
2024-05-09T04:52:39.524Z,1.00
2024-05-09T04:55:11.123Z,1.00
2024-05-09T04:57:41.579Z,99.90
2024-05-09T05:00:35.857Z,99.90
2024-05-09T05:03:09.486Z,99.90
2024-05-09T05:05:50.845Z,99.90
2024-05-09T05:08:19.490Z,1.00
2024-05-09T05:10:55.942Z,1.00
2024-05-09T05:13:32.135Z,1.00
2024-05-09T05:16:07.187Z,41.90
2024-05-09T05:18:34.945Z,59.80
2024-05-09T05:21:11.691Z,26.20
2024-05-09T05:23:41.790Z,43.60
2024-05-09T05:26:10.592Z,99.90
2024-05-09T05:28:41.860Z,99.90
2024-05-09T05:31:12.278Z,99.90
2024-05-09T05:33:39.857Z,1.00
2024-05-09T05:36:10.700Z,1.00
2024-05-09T05:38:38.531Z,1.00
2024-05-09T05:41:08.984Z,99.90
2024-05-09T05:43:36.543Z,99.90
2024-05-09T05:46:11.317Z,99.90
2024-05-09T05:48:39.043Z,1.00
2024-05-09T05:51:07.999Z,1.00
2024-05-09T05:53:35.796Z,1.00
2024-05-09T05:56:03.524Z,1.00
2024-05-09T05:58:31.207Z,1.00
2024-05-09T06:01:00.026Z,1.00
2024-05-09T06:03:29.648Z,1.00
2024-05-09T06:05:57.550Z,99.90
2024-05-09T06:08:30.458Z,99.90
2024-05-09T06:10:59.375Z,99.90
2024-05-09T06:13:27.181Z,1.00
2024-05-09T06:15:54.854Z,1.00
2024-05-09T06:18:29.901Z,99.90
2024-05-09T06:21:03.255Z,1.00
2024-05-09T06:23:33.622Z,1.00
2024-05-09T06:26:01.295Z,99.90
2024-05-09T06:28:31.883Z,99.90
2024-05-09T06:31:02.451Z,1.00
2024-05-09T06:33:33.302Z,99.90
2024-05-09T06:36:04.965Z,99.90
2024-05-09T06:38:40.034Z,1.00
2024-05-09T06:41:09.695Z,59.30
2024-05-09T06:43:41.530Z,32.80
2024-05-09T06:46:11.680Z,79.00
2024-05-09T06:48:59.093Z,1.00
2024-05-09T06:51:27.102Z,1.00
2024-05-09T06:54:02.038Z,99.90
2024-05-09T06:56:42.300Z,99.90
2024-05-09T06:59:11.133Z,79.00
2024-05-09T07:04:32.558Z,1.00
2024-05-09T07:07:00.359Z,99.90
2024-05-09T07:09:37.910Z,99.90
2024-05-09T07:12:08.951Z,99.90
2024-05-09T07:14:38.149Z,32.50
2024-05-09T07:17:10.723Z,1.00
2024-05-09T07:19:38.541Z,1.00
2024-05-09T07:22:06.370Z,1.00
2024-05-09T07:24:33.922Z,99.90
2024-05-09T07:27:03.507Z,99.90
2024-05-09T07:29:46.180Z,10.50
2024-05-09T07:32:13.885Z,1.00
2024-05-09T07:34:46.431Z,1.00
2024-05-09T07:37:25.304Z,99.90
2024-05-09T07:40:05.914Z,48.90
2024-05-09T07:43:03.541Z,1.00
2024-05-09T07:46:28.604Z,1.00
2024-05-09T07:50:34.431Z,1.00
2024-05-09T07:53:14.119Z,1.00
2024-05-09T07:54:28.639Z,1.00
2024-05-09T07:57:01.807Z,1.00
2024-05-09T07:59:37.642Z,99.90
2024-05-09T08:02:06.337Z,99.90
2024-05-09T08:04:34.147Z,99.90
2024-05-09T08:07:01.491Z,99.90
2024-05-09T08:09:28.765Z,41.80
2024-05-09T08:11:56.289Z,13.00
2024-05-09T08:14:23.950Z,1.00
2024-05-09T08:16:51.669Z,1.00
2024-05-09T08:19:20.274Z,99.90
2024-05-09T08:21:48.138Z,99.90
2024-05-09T08:24:18.480Z,99.90
2024-05-09T08:26:45.883Z,99.90
2024-05-09T08:29:13.338Z,99.90
2024-05-09T08:31:41.224Z,1.00
2024-05-09T08:34:08.635Z,1.00
2024-05-09T08:36:36.137Z,1.00
2024-05-09T08:39:03.566Z,99.90
2024-05-09T08:41:33.328Z,1.00
2024-05-09T08:44:01.540Z,99.90
2024-05-09T08:46:31.875Z,99.90
2024-05-09T08:49:01.707Z,1.00
2024-05-09T08:51:29.766Z,1.00
2024-05-09T08:53:57.190Z,54.40
2024-05-09T08:56:28.916Z,99.90
2024-05-09T08:58:59.440Z,99.90
2024-05-09T09:01:31.284Z,1.00
2024-05-09T09:04:04.081Z,99.90
2024-05-09T09:06:33.730Z,99.90
2024-05-09T09:09:01.713Z,99.90
2024-05-09T09:11:29.060Z,99.90
2024-05-09T09:13:56.330Z,99.90
2024-05-09T09:16:37.205Z,99.90
2024-05-09T09:19:05.694Z,99.90
2024-05-09T09:21:35.049Z,99.90
2024-05-09T09:24:02.699Z,99.90
2024-05-09T09:26:31.697Z,99.90
2024-05-09T09:29:02.904Z,99.90
2024-05-09T09:31:31.260Z,99.90
2024-05-09T09:34:06.112Z,99.90
2024-05-09T09:36:39.263Z,99.90
2024-05-09T09:39:09.127Z,99.90
2024-05-09T09:41:38.428Z,99.90
2024-05-09T09:44:19.623Z,99.90
2024-05-09T09:46:47.767Z,99.90
2024-05-09T09:49:19.862Z,99.90
2024-05-09T09:51:48.624Z,99.90
2024-05-09T09:54:16.320Z,99.90
2024-05-09T09:56:45.930Z,99.90
2024-05-09T09:59:17.145Z,99.90
2024-05-09T10:01:46.182Z,99.90
2024-05-09T10:04:19.024Z,99.90
2024-05-09T10:06:54.449Z,99.90
2024-05-09T10:09:22.769Z,99.90
2024-05-09T10:11:54.503Z,99.90
2024-05-09T10:14:33.787Z,99.90
2024-05-09T10:17:05.653Z,99.90
2024-05-09T10:19:35.744Z,99.90
2024-05-09T10:22:06.337Z,99.90
2024-05-09T10:24:50.865Z,99.90
2024-05-09T10:27:28.502Z,99.90
2024-05-09T10:30:00.513Z,99.90
2024-05-09T10:32:38.027Z,99.90
2024-05-09T10:35:05.679Z,99.90
2024-05-09T10:37:33.481Z,99.90
2024-05-09T10:40:01.888Z,99.90
2024-05-09T10:42:31.736Z,99.90
2024-05-09T10:45:02.396Z,99.90
2024-05-09T10:47:34.008Z,99.90
2024-05-09T10:50:01.635Z,99.90
2024-05-09T10:52:29.039Z,99.90
2024-05-09T10:54:56.590Z,99.90
2024-05-09T10:57:24.743Z,1.00
2024-05-09T10:59:52.183Z,99.90
2024-05-09T11:02:19.498Z,99.90
2024-05-09T11:04:46.995Z,99.90
2024-05-09T11:07:16.302Z,99.90
2024-05-09T11:09:44.459Z,1.00
2024-05-09T11:12:11.823Z,1.40
2024-05-09T11:14:39.011Z,1.40
2024-05-09T11:17:07.753Z,1.00
2024-05-09T11:19:39.766Z,1.00
2024-05-09T11:22:07.348Z,1.00
2024-05-09T11:24:37.750Z,1.00
2024-05-09T11:27:06.395Z,99.90
2024-05-09T11:29:44.747Z,99.90
2024-05-09T11:32:13.691Z,99.90
2024-05-09T11:34:42.241Z,99.90
2024-05-09T11:37:11.178Z,99.90
2024-05-09T11:39:38.573Z,99.90
2024-05-09T11:42:06.273Z,99.90
2024-05-09T11:44:33.527Z,99.90
2024-05-09T11:47:00.886Z,99.90
2024-05-09T11:49:28.076Z,1.00
2024-05-09T11:51:55.363Z,1.00
2024-05-09T11:54:22.700Z,1.00
2024-05-09T11:56:51.766Z,1.00
2024-05-09T11:59:18.875Z,1.00
2024-05-09T12:01:46.202Z,1.00
2024-05-09T12:04:13.525Z,1.00
2024-05-09T12:06:40.910Z,1.40
2024-05-09T12:09:08.510Z,99.90
2024-05-09T12:11:35.842Z,99.90
2024-05-09T12:14:02.982Z,99.90
2024-05-09T12:16:30.493Z,99.90
2024-05-09T12:18:57.771Z,99.90
2024-05-09T12:21:27.813Z,99.90
2024-05-09T12:23:55.065Z,99.90
2024-05-09T12:26:22.806Z,99.90
2024-05-09T12:28:49.950Z,99.90
2024-05-09T12:31:17.204Z,99.90
2024-05-09T12:33:44.562Z,99.90
2024-05-09T12:36:11.907Z,99.90
2024-05-09T12:38:39.237Z,99.90
2024-05-09T12:41:06.588Z,99.90
2024-05-09T12:43:33.984Z,99.90
2024-05-09T12:46:02.684Z,1.40
2024-05-09T12:48:30.400Z,99.90
2024-05-09T12:50:57.868Z,99.90
2024-05-09T12:53:28.026Z,1.40
2024-05-09T12:55:59.941Z,99.90
2024-05-09T12:58:29.587Z,99.90
2024-05-09T13:00:56.917Z,99.90
2024-05-09T13:03:24.451Z,99.90
2024-05-09T13:05:52.489Z,99.90
2024-05-09T13:08:20.776Z,99.90
2024-05-09T13:10:48.786Z,99.90
2024-05-09T13:13:16.520Z,99.90
2024-05-09T13:15:44.074Z,99.90
2024-05-09T13:18:11.445Z,1.00
2024-05-09T13:20:38.669Z,1.00
2024-05-09T13:23:08.050Z,1.00
2024-05-09T13:25:37.110Z,1.00
2024-05-09T13:28:05.983Z,1.00
2024-05-09T13:30:39.691Z,1.00
2024-05-09T13:33:11.430Z,1.00
2024-05-09T13:35:45.540Z,1.00
2024-05-09T13:38:16.853Z,1.00
2024-05-09T13:40:44.348Z,1.00
2024-05-09T13:43:11.838Z,1.00
2024-05-09T13:45:40.360Z,1.00
2024-05-09T13:48:09.796Z,1.00
2024-05-09T13:50:37.734Z,1.00
2024-05-09T13:53:07.251Z,1.00
2024-05-09T13:55:37.712Z,1.00
2024-05-09T13:58:05.832Z,1.40
2024-05-09T14:00:43.857Z,1.00
2024-05-09T14:03:16.614Z,1.00
2024-05-09T14:05:51.704Z,1.00
2024-05-09T14:08:20.499Z,1.00
2024-05-09T14:10:49.501Z,99.90
2024-05-09T14:13:23.499Z,1.00
2024-05-09T14:15:51.156Z,1.00
2024-05-09T14:18:19.162Z,1.00
2024-05-09T14:20:46.586Z,1.00
2024-05-09T14:23:15.217Z,1.00
2024-05-09T14:25:43.887Z,1.00
2024-05-09T14:28:13.177Z,1.00
2024-05-09T14:30:43.940Z,1.00
2024-05-09T14:33:16.654Z,1.00
2024-05-09T14:35:44.287Z,1.00
2024-05-09T14:38:11.864Z,1.00
2024-05-09T14:40:42.950Z,1.00
2024-05-09T14:43:13.499Z,1.00
2024-05-09T14:45:41.696Z,1.00
2024-05-09T14:48:10.014Z,1.00
2024-05-09T14:50:39.626Z,1.00
2024-05-09T14:53:12.040Z,1.00
2024-05-09T14:55:41.480Z,1.00
2024-05-09T14:58:11.089Z,1.00
2024-05-09T15:00:44.833Z,1.00
2024-05-09T15:03:15.745Z,1.00
2024-05-09T15:05:43.075Z,1.00
2024-05-09T15:08:10.269Z,1.00
2024-05-09T15:10:37.912Z,1.00
2024-05-09T15:13:07.954Z,1.00
2024-05-09T15:15:37.260Z,1.00
2024-05-09T15:18:05.645Z,1.00
2024-05-09T15:20:36.202Z,1.00
2024-05-09T15:23:07.936Z,1.00
2024-05-09T15:25:36.623Z,1.00
2024-05-09T15:28:07.668Z,1.00
2024-05-09T15:30:35.610Z,1.00
2024-05-09T15:33:07.334Z,1.00
2024-05-09T15:35:47.881Z,1.00
2024-05-09T15:38:43.630Z,1.00
2024-05-09T15:41:10.888Z,1.00
2024-05-09T15:43:42.811Z,1.00
2024-05-09T15:46:10.203Z,1.00
2024-05-09T15:48:39.242Z,1.00
2024-05-09T15:51:11.853Z,1.00
2024-05-09T15:53:41.751Z,1.00
2024-05-09T15:56:14.123Z,1.00
2024-05-09T15:58:44.806Z,1.00
2024-05-09T16:01:14.948Z,1.00
2024-05-09T16:03:43.315Z,1.00
2024-05-09T16:06:11.209Z,1.00
2024-05-09T16:08:39.050Z,1.00
2024-05-09T16:11:06.821Z,1.00
2024-05-09T16:13:36.908Z,1.00
2024-05-09T16:16:05.415Z,1.00
2024-05-09T16:18:33.057Z,1.00
2024-05-09T16:21:01.958Z,1.00
2024-05-09T16:23:29.929Z,1.00
2024-05-09T16:25:57.813Z,1.00
2024-05-09T16:28:26.989Z,1.00
2024-05-09T16:30:55.902Z,1.00
2024-05-09T16:33:26.493Z,1.00
2024-05-09T16:35:54.714Z,1.00
2024-05-09T16:38:22.544Z,1.00
2024-05-09T16:40:50.300Z,1.00
2024-05-09T16:43:21.241Z,1.00
2024-05-09T16:45:49.316Z,1.00
2024-05-09T16:48:17.550Z,1.00
2024-05-09T16:50:45.361Z,1.00
2024-05-09T16:53:14.154Z,1.00
2024-05-09T16:55:41.757Z,1.00
2024-05-09T16:58:12.482Z,1.00
2024-05-09T17:00:43.320Z,1.00
2024-05-09T17:03:14.573Z,1.00
2024-05-09T17:05:47.364Z,1.00
2024-05-09T17:08:20.385Z,1.00
2024-05-09T17:10:51.819Z,1.00
2024-05-09T17:13:20.081Z,1.00
2024-05-09T17:15:48.860Z,1.00
2024-05-09T17:18:17.007Z,1.00
2024-05-09T17:20:44.247Z,1.00
2024-05-09T17:23:14.667Z,1.00
2024-05-09T17:25:42.857Z,1.00
2024-05-09T17:28:11.113Z,1.00
2024-05-09T17:30:40.700Z,1.00
2024-05-09T17:33:13.729Z,1.00
2024-05-09T17:35:41.676Z,1.00
2024-05-09T17:38:09.402Z,1.00
2024-05-09T17:40:38.267Z,1.40
2024-05-09T17:43:09.049Z,1.00
2024-05-09T17:45:41.732Z,1.00
2024-05-09T17:48:11.104Z,99.90
2024-05-09T17:50:39.748Z,99.90
2024-05-09T17:53:08.939Z,99.90
2024-05-09T17:55:36.769Z,99.90
2024-05-09T17:58:05.307Z,99.90
2024-05-09T18:00:39.093Z,99.90
2024-05-09T18:03:12.455Z,99.90
2024-05-09T18:05:40.816Z,99.90
2024-05-09T18:08:09.014Z,99.90
2024-05-09T18:10:39.113Z,99.90
2024-05-09T18:13:08.953Z,99.90
2024-05-09T18:15:36.854Z,99.90
2024-05-09T18:18:05.198Z,99.90
2024-05-09T18:20:41.608Z,99.90
2024-05-09T18:23:17.176Z,99.90
2024-05-09T18:25:47.002Z,99.90
2024-05-09T18:28:15.553Z,99.90
2024-05-09T18:30:43.296Z,99.90
2024-05-09T18:33:11.663Z,99.90
2024-05-09T18:35:41.212Z,99.90
2024-05-09T18:38:10.951Z,99.90
2024-05-09T18:40:49.662Z,99.90
2024-05-09T18:43:17.633Z,99.90
2024-05-09T18:45:46.140Z,99.90
2024-05-09T18:48:13.809Z,99.90
2024-05-09T18:50:41.798Z,99.90
2024-05-09T18:53:11.883Z,99.90
2024-05-09T18:55:43.507Z,99.90
2024-05-09T18:58:10.932Z,99.90
2024-05-09T19:00:41.126Z,99.90
2024-05-09T19:03:13.065Z,99.90
2024-05-09T19:05:43.682Z,99.90
2024-05-09T19:08:12.508Z,99.90
2024-05-09T19:10:43.042Z,99.90
2024-05-09T19:13:12.912Z,99.90
2024-05-09T19:15:44.679Z,99.90
2024-05-09T19:18:15.908Z,99.90
2024-05-09T19:20:56.038Z,99.90
2024-05-09T19:23:25.630Z,99.90
2024-05-09T19:26:00.615Z,99.90
2024-05-09T19:29:27.858Z,99.90
2024-05-09T19:32:15.279Z,99.90
2024-05-09T19:34:55.097Z,99.90
2024-05-09T19:37:54.407Z,99.90
2024-05-09T19:40:43.926Z,99.90
2024-05-09T19:43:19.176Z,99.90
2024-05-09T19:49:55.904Z,99.90
2024-05-09T19:56:34.214Z,1.00
2024-05-09T19:58:25.880Z,1.00
2024-05-09T20:04:32.382Z,1.00
2024-05-09T20:07:34.257Z,99.90
2024-05-09T20:10:40.075Z,99.90
2024-05-09T20:13:17.644Z,99.90
2024-05-09T20:20:07.405Z,99.90
2024-05-09T20:22:50.187Z,1.00
2024-05-09T20:26:11.571Z,1.00
2024-05-09T20:28:49.359Z,1.00
2024-05-09T20:56:57.785Z,1.00
2024-05-09T20:59:41.157Z,99.90
2024-05-09T21:02:26.493Z,99.90
2024-05-09T21:05:15.662Z,99.90
2024-05-09T21:07:58.806Z,99.90
2024-05-09T21:10:40.385Z,99.90
2024-05-09T21:13:34.460Z,99.90
2024-05-09T21:16:10.243Z,99.90
2024-05-09T21:18:57.506Z,99.90
2024-05-09T21:22:00.147Z,99.90
2024-05-09T21:24:54.398Z,99.90
2024-05-09T21:27:42.717Z,1.00
2024-05-09T21:30:31.775Z,59.50
2024-05-09T21:33:30.907Z,99.90
2024-05-09T21:40:09.030Z,1.00
2024-05-09T21:45:40.184Z,1.00
2024-05-09T21:48:14.450Z,1.00
2024-05-09T21:50:54.935Z,1.00
2024-05-09T21:53:53.024Z,1.00
2024-05-09T22:00:08.401Z,1.00
2024-05-09T22:02:54.467Z,1.00
2024-05-09T22:05:28.020Z,1.00
2024-05-09T22:08:20.967Z,1.00
2024-05-09T22:11:11.580Z,1.00
2024-05-09T22:14:20.568Z,1.00
2024-05-09T22:18:42.831Z,1.00
2024-05-09T22:20:14.662Z,1.00
2024-05-09T22:22:58.513Z,1.00
2024-05-09T22:25:37.756Z,1.00
2024-05-09T22:28:20.262Z,1.00
2024-05-09T22:31:13.152Z,1.00
2024-05-09T22:34:17.026Z,1.00
2024-05-09T22:36:48.643Z,1.00
2024-05-09T22:39:24.256Z,1.00
2024-05-09T22:42:12.426Z,1.00
2024-05-09T22:45:01.156Z,1.00
2024-05-09T22:47:34.501Z,1.00
2024-05-09T22:50:26.982Z,1.00
2024-05-09T22:53:07.910Z,1.00
2024-05-09T22:56:09.010Z,1.00
2024-05-09T22:59:31.888Z,1.00
2024-05-09T23:02:14.671Z,1.00
2024-05-09T23:04:51.654Z,1.00
2024-05-09T23:07:41.095Z,1.00
2024-05-09T23:10:35.223Z,1.00
2024-05-09T23:13:08.531Z,1.00
2024-05-09T23:15:58.920Z,1.00
2024-05-09T23:18:33.639Z,1.00
2024-05-09T23:21:02.520Z,1.00
2024-05-09T23:23:52.739Z,1.00
2024-05-09T23:26:26.994Z,1.00
2024-05-09T23:28:59.408Z,1.00
2024-05-09T23:31:33.477Z,1.00
2024-05-09T23:34:11.601Z,1.00
2024-05-09T23:36:56.628Z,1.00
2024-05-09T23:39:32.545Z,1.00
2024-05-09T23:42:13.648Z,1.00
2024-05-09T23:44:48.050Z,1.00
2024-05-09T23:47:21.490Z,1.00
2024-05-09T23:49:58.554Z,1.00
2024-05-09T23:52:31.548Z,1.00
2024-05-09T23:55:14.292Z,1.00
2024-05-09T23:57:44.363Z,10.30
